sensor_id;sensor_type;location;lat;lon;timestamp;P1;durP1;ratioP1;P2;durP2;ratioP2
43933;SDS011;59081;42.706;23.306;2023-02-28T00:00:23;31.00;;;17.83;;
43933;SDS011;59081;42.706;23.306;2023-02-28T00:02:49;27.20;;;14.07;;
43933;SDS011;59081;42.706;23.306;2023-02-28T00:08:05;30.27;;;16.42;;
43933;SDS011;59081;42.706;23.306;2023-02-28T00:10:33;31.30;;;17.30;;
43933;SDS011;59081;42.706;23.306;2023-02-28T00:13:04;34.00;;;18.35;;
43933;SDS011;59081;42.706;23.306;2023-02-28T00:15:31;30.88;;;15.13;;
43933;SDS011;59081;42.706;23.306;2023-02-28T00:17:57;27.30;;;16.23;;
43933;SDS011;59081;42.706;23.306;2023-02-28T00:20:23;26.63;;;15.25;;
43933;SDS011;59081;42.706;23.306;2023-02-28T00:22:50;33.63;;;17.15;;
43933;SDS011;59081;42.706;23.306;2023-02-28T00:25:18;28.08;;;14.77;;
43933;SDS011;59081;42.706;23.306;2023-02-28T00:27:47;27.95;;;17.05;;
43933;SDS011;59081;42.706;23.306;2023-02-28T00:30:14;30.02;;;15.68;;
43933;SDS011;59081;42.706;23.306;2023-02-28T00:32:43;33.08;;;14.75;;
43933;SDS011;59081;42.706;23.306;2023-02-28T00:35:09;29.00;;;15.75;;
43933;SDS011;59081;42.706;23.306;2023-02-28T00:37:36;35.80;;;18.02;;
43933;SDS011;59081;42.706;23.306;2023-02-28T00:40:02;34.08;;;18.08;;
43933;SDS011;59081;42.706;23.306;2023-02-28T00:42:32;37.83;;;20.42;;
43933;SDS011;59081;42.706;23.306;2023-02-28T00:44:58;39.45;;;19.98;;
43933;SDS011;59081;42.706;23.306;2023-02-28T00:47:24;40.42;;;20.05;;
43933;SDS011;59081;42.706;23.306;2023-02-28T00:49:52;38.92;;;20.10;;
43933;SDS011;59081;42.706;23.306;2023-02-28T00:52:20;35.05;;;19.63;;
43933;SDS011;59081;42.706;23.306;2023-02-28T00:54:46;39.17;;;20.13;;
43933;SDS011;59081;42.706;23.306;2023-02-28T00:57:12;40.33;;;20.35;;
43933;SDS011;59081;42.706;23.306;2023-02-28T00:59:37;37.72;;;19.08;;
43933;SDS011;59081;42.706;23.306;2023-02-28T01:02:05;37.95;;;19.30;;
43933;SDS011;59081;42.706;23.306;2023-02-28T01:04:31;37.83;;;18.02;;
43933;SDS011;59081;42.706;23.306;2023-02-28T01:06:57;37.25;;;21.13;;
43933;SDS011;59081;42.706;23.306;2023-02-28T01:09:25;36.47;;;18.95;;
43933;SDS011;59081;42.706;23.306;2023-02-28T01:11:50;38.35;;;19.58;;
43933;SDS011;59081;42.706;23.306;2023-02-28T01:14:16;42.10;;;19.20;;
43933;SDS011;59081;42.706;23.306;2023-02-28T01:16:43;38.55;;;20.25;;
43933;SDS011;59081;42.706;23.306;2023-02-28T01:19:08;42.00;;;21.58;;
43933;SDS011;59081;42.706;23.306;2023-02-28T01:21:35;54.13;;;22.45;;
43933;SDS011;59081;42.706;23.306;2023-02-28T01:24:01;49.85;;;24.67;;
43933;SDS011;59081;42.706;23.306;2023-02-28T01:26:28;50.38;;;21.85;;
43933;SDS011;59081;42.706;23.306;2023-02-28T01:28:54;51.50;;;24.63;;
43933;SDS011;59081;42.706;23.306;2023-02-28T01:31:20;48.42;;;21.70;;
43933;SDS011;59081;42.706;23.306;2023-02-28T01:33:46;53.95;;;25.42;;
43933;SDS011;59081;42.706;23.306;2023-02-28T01:36:17;47.83;;;23.95;;
43933;SDS011;59081;42.706;23.306;2023-02-28T01:38:44;50.50;;;23.42;;
43933;SDS011;59081;42.706;23.306;2023-02-28T01:41:21;38.65;;;19.80;;
43933;SDS011;59081;42.706;23.306;2023-02-28T01:46:13;43.03;;;21.30;;
43933;SDS011;59081;42.706;23.306;2023-02-28T01:48:44;34.63;;;17.70;;
43933;SDS011;59081;42.706;23.306;2023-02-28T01:51:20;39.30;;;16.95;;
43933;SDS011;59081;42.706;23.306;2023-02-28T01:53:51;35.33;;;16.00;;
43933;SDS011;59081;42.706;23.306;2023-02-28T01:58:49;38.38;;;17.65;;
43933;SDS011;59081;42.706;23.306;2023-02-28T02:01:22;37.58;;;17.45;;
43933;SDS011;59081;42.706;23.306;2023-02-28T02:03:51;39.55;;;18.50;;
43933;SDS011;59081;42.706;23.306;2023-02-28T02:06:27;33.03;;;15.90;;
43933;SDS011;59081;42.706;23.306;2023-02-28T02:08:55;45.63;;;19.77;;
43933;SDS011;59081;42.706;23.306;2023-02-28T02:11:21;41.15;;;17.75;;
43933;SDS011;59081;42.706;23.306;2023-02-28T02:27:32;52.08;;;20.60;;
43933;SDS011;59081;42.706;23.306;2023-02-28T02:30:28;44.55;;;19.73;;
43933;SDS011;59081;42.706;23.306;2023-02-28T02:38:48;55.83;;;23.17;;
43933;SDS011;59081;42.706;23.306;2023-02-28T02:41:17;54.65;;;22.67;;
43933;SDS011;59081;42.706;23.306;2023-02-28T02:43:54;46.70;;;21.23;;
43933;SDS011;59081;42.706;23.306;2023-02-28T02:46:36;48.58;;;22.05;;
43933;SDS011;59081;42.706;23.306;2023-02-28T02:49:15;60.35;;;23.23;;
43933;SDS011;59081;42.706;23.306;2023-02-28T02:51:45;62.00;;;23.00;;
43933;SDS011;59081;42.706;23.306;2023-02-28T02:54:14;63.40;;;22.83;;
43933;SDS011;59081;42.706;23.306;2023-02-28T02:56:45;53.28;;;19.83;;
43933;SDS011;59081;42.706;23.306;2023-02-28T02:59:13;54.72;;;21.40;;
43933;SDS011;59081;42.706;23.306;2023-02-28T03:01:49;64.28;;;21.38;;
43933;SDS011;59081;42.706;23.306;2023-02-28T03:04:19;52.08;;;22.98;;
43933;SDS011;59081;42.706;23.306;2023-02-28T03:06:47;50.67;;;21.02;;
43933;SDS011;59081;42.706;23.306;2023-02-28T03:09:20;45.05;;;19.75;;
43933;SDS011;59081;42.706;23.306;2023-02-28T03:11:46;46.95;;;18.60;;
43933;SDS011;59081;42.706;23.306;2023-02-28T03:24:58;42.97;;;19.07;;
43933;SDS011;59081;42.706;23.306;2023-02-28T03:27:52;49.80;;;20.88;;
43933;SDS011;59081;42.706;23.306;2023-02-28T03:33:20;52.88;;;20.02;;
43933;SDS011;59081;42.706;23.306;2023-02-28T03:35:51;47.30;;;22.38;;
43933;SDS011;59081;42.706;23.306;2023-02-28T03:38:29;48.63;;;21.40;;
43933;SDS011;59081;42.706;23.306;2023-02-28T03:41:06;74.87;;;24.43;;
43933;SDS011;59081;42.706;23.306;2023-02-28T03:43:49;64.95;;;24.42;;
43933;SDS011;59081;42.706;23.306;2023-02-28T03:46:22;60.40;;;25.35;;
43933;SDS011;59081;42.706;23.306;2023-02-28T03:49:02;65.18;;;23.67;;
43933;SDS011;59081;42.706;23.306;2023-02-28T03:51:34;58.33;;;23.10;;
43933;SDS011;59081;42.706;23.306;2023-02-28T03:54:05;59.33;;;22.05;;
43933;SDS011;59081;42.706;23.306;2023-02-28T03:56:38;55.67;;;22.58;;
43933;SDS011;59081;42.706;23.306;2023-02-28T03:59:16;61.00;;;23.83;;
43933;SDS011;59081;42.706;23.306;2023-02-28T04:01:47;58.20;;;21.98;;
43933;SDS011;59081;42.706;23.306;2023-02-28T04:04:19;62.13;;;23.65;;
43933;SDS011;59081;42.706;23.306;2023-02-28T04:06:45;51.33;;;21.60;;
43933;SDS011;59081;42.706;23.306;2023-02-28T04:09:12;46.85;;;21.20;;
43933;SDS011;59081;42.706;23.306;2023-02-28T04:11:40;48.20;;;20.33;;
43933;SDS011;59081;42.706;23.306;2023-02-28T04:14:11;46.85;;;21.00;;
43933;SDS011;59081;42.706;23.306;2023-02-28T04:16:38;48.70;;;19.67;;
43933;SDS011;59081;42.706;23.306;2023-02-28T04:19:06;47.58;;;18.80;;
43933;SDS011;59081;42.706;23.306;2023-02-28T04:24:18;48.88;;;20.10;;
43933;SDS011;59081;42.706;23.306;2023-02-28T04:26:46;51.75;;;19.63;;
43933;SDS011;59081;42.706;23.306;2023-02-28T04:29:20;48.42;;;19.98;;
43933;SDS011;59081;42.706;23.306;2023-02-28T04:31:51;59.47;;;21.73;;
43933;SDS011;59081;42.706;23.306;2023-02-28T04:34:22;53.58;;;23.90;;
43933;SDS011;59081;42.706;23.306;2023-02-28T04:36:49;49.95;;;21.33;;
43933;SDS011;59081;42.706;23.306;2023-02-28T04:39:16;54.10;;;21.80;;
43933;SDS011;59081;42.706;23.306;2023-02-28T04:41:43;53.10;;;21.60;;
43933;SDS011;59081;42.706;23.306;2023-02-28T04:44:12;61.53;;;21.83;;
43933;SDS011;59081;42.706;23.306;2023-02-28T04:46:38;49.38;;;20.08;;
43933;SDS011;59081;42.706;23.306;2023-02-28T04:49:03;52.05;;;20.80;;
43933;SDS011;59081;42.706;23.306;2023-02-28T04:51:29;48.10;;;18.70;;
43933;SDS011;59081;42.706;23.306;2023-02-28T04:53:55;51.17;;;22.27;;
43933;SDS011;59081;42.706;23.306;2023-02-28T04:56:21;55.20;;;21.10;;
43933;SDS011;59081;42.706;23.306;2023-02-28T04:58:47;52.13;;;20.48;;
43933;SDS011;59081;42.706;23.306;2023-02-28T05:03:44;53.75;;;22.15;;
43933;SDS011;59081;42.706;23.306;2023-02-28T05:06:13;66.35;;;25.77;;
43933;SDS011;59081;42.706;23.306;2023-02-28T05:08:41;66.60;;;25.80;;
43933;SDS011;59081;42.706;23.306;2023-02-28T05:11:14;76.20;;;26.83;;
43933;SDS011;59081;42.706;23.306;2023-02-28T05:13:44;81.32;;;28.52;;
43933;SDS011;59081;42.706;23.306;2023-02-28T05:16:10;79.03;;;28.25;;
43933;SDS011;59081;42.706;23.306;2023-02-28T05:18:39;75.70;;;28.52;;
43933;SDS011;59081;42.706;23.306;2023-02-28T05:21:04;84.55;;;27.20;;
43933;SDS011;59081;42.706;23.306;2023-02-28T05:23:30;74.10;;;27.20;;
43933;SDS011;59081;42.706;23.306;2023-02-28T05:25:57;97.20;;;31.42;;
43933;SDS011;59081;42.706;23.306;2023-02-28T05:28:23;80.63;;;30.25;;
43933;SDS011;59081;42.706;23.306;2023-02-28T05:30:48;100.45;;;32.97;;
43933;SDS011;59081;42.706;23.306;2023-02-28T05:33:14;110.50;;;38.42;;
43933;SDS011;59081;42.706;23.306;2023-02-28T05:35:40;116.25;;;40.60;;
43933;SDS011;59081;42.706;23.306;2023-02-28T05:38:07;110.60;;;41.60;;
43933;SDS011;59081;42.706;23.306;2023-02-28T05:40:33;114.47;;;38.45;;
43933;SDS011;59081;42.706;23.306;2023-02-28T05:42:59;114.65;;;40.22;;
43933;SDS011;59081;42.706;23.306;2023-02-28T05:45:25;119.10;;;39.20;;
43933;SDS011;59081;42.706;23.306;2023-02-28T05:47:53;128.45;;;41.63;;
43933;SDS011;59081;42.706;23.306;2023-02-28T05:50:22;132.02;;;47.78;;
43933;SDS011;59081;42.706;23.306;2023-02-28T05:52:53;119.32;;;46.70;;
43933;SDS011;59081;42.706;23.306;2023-02-28T05:55:19;111.55;;;40.28;;
43933;SDS011;59081;42.706;23.306;2023-02-28T05:57:47;131.75;;;46.63;;
43933;SDS011;59081;42.706;23.306;2023-02-28T06:00:18;142.30;;;55.60;;
43933;SDS011;59081;42.706;23.306;2023-02-28T06:02:44;116.60;;;42.40;;
43933;SDS011;59081;42.706;23.306;2023-02-28T06:05:13;125.13;;;40.80;;
43933;SDS011;59081;42.706;23.306;2023-02-28T06:07:41;121.80;;;42.70;;
43933;SDS011;59081;42.706;23.306;2023-02-28T06:10:06;127.93;;;40.58;;
43933;SDS011;59081;42.706;23.306;2023-02-28T06:12:35;116.03;;;38.63;;
43933;SDS011;59081;42.706;23.306;2023-02-28T06:15:01;96.55;;;35.45;;
43933;SDS011;59081;42.706;23.306;2023-02-28T06:17:27;119.80;;;39.05;;
43933;SDS011;59081;42.706;23.306;2023-02-28T06:19:53;101.20;;;37.40;;
43933;SDS011;59081;42.706;23.306;2023-02-28T06:22:18;117.65;;;37.85;;
43933;SDS011;59081;42.706;23.306;2023-02-28T06:24:44;101.57;;;34.58;;
43933;SDS011;59081;42.706;23.306;2023-02-28T06:27:10;96.55;;;34.55;;
43933;SDS011;59081;42.706;23.306;2023-02-28T06:29:35;90.95;;;32.38;;
43933;SDS011;59081;42.706;23.306;2023-02-28T06:32:04;92.55;;;32.88;;
43933;SDS011;59081;42.706;23.306;2023-02-28T06:34:31;89.90;;;32.88;;
43933;SDS011;59081;42.706;23.306;2023-02-28T06:36:58;79.43;;;31.17;;
43933;SDS011;59081;42.706;23.306;2023-02-28T06:39:27;90.30;;;33.08;;
43933;SDS011;59081;42.706;23.306;2023-02-28T06:41:53;75.70;;;29.08;;
43933;SDS011;59081;42.706;23.306;2023-02-28T06:44:19;89.40;;;33.97;;
43933;SDS011;59081;42.706;23.306;2023-02-28T06:46:45;77.63;;;32.67;;
43933;SDS011;59081;42.706;23.306;2023-02-28T06:49:11;109.53;;;37.63;;
43933;SDS011;59081;42.706;23.306;2023-02-28T06:51:37;118.28;;;43.58;;
43933;SDS011;59081;42.706;23.306;2023-02-28T06:54:05;116.85;;;47.63;;
43933;SDS011;59081;42.706;23.306;2023-02-28T06:56:34;96.85;;;36.17;;
43933;SDS011;59081;42.706;23.306;2023-02-28T06:59:00;94.18;;;38.95;;
43933;SDS011;59081;42.706;23.306;2023-02-28T07:01:25;95.35;;;37.97;;
43933;SDS011;59081;42.706;23.306;2023-02-28T07:03:53;87.72;;;35.47;;
43933;SDS011;59081;42.706;23.306;2023-02-28T07:06:19;84.32;;;34.33;;
43933;SDS011;59081;42.706;23.306;2023-02-28T07:08:47;86.10;;;33.22;;
43933;SDS011;59081;42.706;23.306;2023-02-28T07:11:13;80.82;;;29.88;;
43933;SDS011;59081;42.706;23.306;2023-02-28T07:13:39;83.75;;;32.75;;
43933;SDS011;59081;42.706;23.306;2023-02-28T07:16:05;75.63;;;32.00;;
43933;SDS011;59081;42.706;23.306;2023-02-28T07:18:34;72.80;;;29.80;;
43933;SDS011;59081;42.706;23.306;2023-02-28T07:21:04;65.13;;;31.08;;
43933;SDS011;59081;42.706;23.306;2023-02-28T07:23:31;75.50;;;31.35;;
43933;SDS011;59081;42.706;23.306;2023-02-28T07:25:57;69.88;;;28.75;;
43933;SDS011;59081;42.706;23.306;2023-02-28T07:28:23;66.50;;;29.65;;
43933;SDS011;59081;42.706;23.306;2023-02-28T07:30:49;64.28;;;26.77;;
43933;SDS011;59081;42.706;23.306;2023-02-28T07:33:17;59.67;;;27.20;;
43933;SDS011;59081;42.706;23.306;2023-02-28T07:35:45;62.65;;;27.80;;
43933;SDS011;59081;42.706;23.306;2023-02-28T07:38:11;69.90;;;28.75;;
43933;SDS011;59081;42.706;23.306;2023-02-28T07:40:38;64.45;;;28.63;;
43933;SDS011;59081;42.706;23.306;2023-02-28T07:43:04;69.30;;;29.25;;
43933;SDS011;59081;42.706;23.306;2023-02-28T07:45:30;60.78;;;29.20;;
43933;SDS011;59081;42.706;23.306;2023-02-28T07:47:59;66.63;;;28.73;;
43933;SDS011;59081;42.706;23.306;2023-02-28T07:50:25;57.72;;;27.73;;
43933;SDS011;59081;42.706;23.306;2023-02-28T07:52:55;56.13;;;25.73;;
43933;SDS011;59081;42.706;23.306;2023-02-28T07:55:22;66.30;;;28.50;;
43933;SDS011;59081;42.706;23.306;2023-02-28T07:57:47;57.72;;;28.23;;
43933;SDS011;59081;42.706;23.306;2023-02-28T08:00:13;65.03;;;29.38;;
43933;SDS011;59081;42.706;23.306;2023-02-28T08:02:41;64.13;;;29.73;;
43933;SDS011;59081;42.706;23.306;2023-02-28T08:05:07;53.83;;;26.45;;
43933;SDS011;59081;42.706;23.306;2023-02-28T08:07:33;60.50;;;29.13;;
43933;SDS011;59081;42.706;23.306;2023-02-28T08:09:59;57.40;;;28.52;;
43933;SDS011;59081;42.706;23.306;2023-02-28T08:12:25;61.00;;;28.95;;
43933;SDS011;59081;42.706;23.306;2023-02-28T08:14:50;52.20;;;26.50;;
43933;SDS011;59081;42.706;23.306;2023-02-28T08:17:16;50.60;;;25.20;;
43933;SDS011;59081;42.706;23.306;2023-02-28T08:19:41;48.17;;;26.98;;
43933;SDS011;59081;42.706;23.306;2023-02-28T08:22:09;60.03;;;26.63;;
43933;SDS011;59081;42.706;23.306;2023-02-28T08:24:35;47.92;;;25.15;;
43933;SDS011;59081;42.706;23.306;2023-02-28T08:27:00;55.72;;;24.48;;
43933;SDS011;59081;42.706;23.306;2023-02-28T08:29:26;40.72;;;22.08;;
43933;SDS011;59081;42.706;23.306;2023-02-28T08:31:51;49.90;;;23.08;;
43933;SDS011;59081;42.706;23.306;2023-02-28T08:34:17;53.35;;;24.45;;
43933;SDS011;59081;42.706;23.306;2023-02-28T08:36:43;45.97;;;23.52;;
43933;SDS011;59081;42.706;23.306;2023-02-28T08:39:12;42.03;;;25.13;;
43933;SDS011;59081;42.706;23.306;2023-02-28T08:41:37;44.45;;;22.58;;
43933;SDS011;59081;42.706;23.306;2023-02-28T08:44:03;51.25;;;25.38;;
43933;SDS011;59081;42.706;23.306;2023-02-28T08:46:29;44.28;;;24.23;;
43933;SDS011;59081;42.706;23.306;2023-02-28T08:48:55;45.00;;;24.85;;
43933;SDS011;59081;42.706;23.306;2023-02-28T08:51:25;53.92;;;26.75;;
43933;SDS011;59081;42.706;23.306;2023-02-28T08:53:56;51.30;;;25.52;;
43933;SDS011;59081;42.706;23.306;2023-02-28T08:56:28;50.50;;;25.30;;
43933;SDS011;59081;42.706;23.306;2023-02-28T08:58:55;53.45;;;25.67;;
43933;SDS011;59081;42.706;23.306;2023-02-28T09:01:23;54.22;;;25.30;;
43933;SDS011;59081;42.706;23.306;2023-02-28T09:03:52;53.15;;;27.02;;
43933;SDS011;59081;42.706;23.306;2023-02-28T09:06:18;63.25;;;29.00;;
43933;SDS011;59081;42.706;23.306;2023-02-28T09:08:45;57.83;;;31.00;;
43933;SDS011;59081;42.706;23.306;2023-02-28T09:11:11;59.15;;;30.88;;
43933;SDS011;59081;42.706;23.306;2023-02-28T09:13:37;59.08;;;30.33;;
43933;SDS011;59081;42.706;23.306;2023-02-28T09:16:04;63.42;;;31.58;;
43933;SDS011;59081;42.706;23.306;2023-02-28T09:18:33;72.85;;;31.20;;
43933;SDS011;59081;42.706;23.306;2023-02-28T09:20:59;58.58;;;31.00;;
43933;SDS011;59081;42.706;23.306;2023-02-28T09:23:28;60.05;;;29.50;;
43933;SDS011;59081;42.706;23.306;2023-02-28T09:25:54;63.13;;;29.98;;
43933;SDS011;59081;42.706;23.306;2023-02-28T09:28:20;66.40;;;29.83;;
43933;SDS011;59081;42.706;23.306;2023-02-28T09:30:50;62.70;;;28.63;;
43933;SDS011;59081;42.706;23.306;2023-02-28T09:33:18;64.22;;;29.63;;
43933;SDS011;59081;42.706;23.306;2023-02-28T09:35:46;65.55;;;30.58;;
43933;SDS011;59081;42.706;23.306;2023-02-28T09:38:12;75.30;;;32.08;;
43933;SDS011;59081;42.706;23.306;2023-02-28T09:40:44;78.60;;;31.58;;
43933;SDS011;59081;42.706;23.306;2023-02-28T09:43:18;72.32;;;31.77;;
43933;SDS011;59081;42.706;23.306;2023-02-28T09:46:33;66.70;;;31.17;;
43933;SDS011;59081;42.706;23.306;2023-02-28T09:48:39;57.08;;;28.25;;
43933;SDS011;59081;42.706;23.306;2023-02-28T09:53:55;71.30;;;29.83;;
43933;SDS011;59081;42.706;23.306;2023-02-28T09:56:22;63.80;;;27.30;;
43933;SDS011;59081;42.706;23.306;2023-02-28T10:10:21;49.17;;;24.80;;
43933;SDS011;59081;42.706;23.306;2023-02-28T10:15:49;46.63;;;20.13;;
43933;SDS011;59081;42.706;23.306;2023-02-28T10:18:27;32.88;;;15.13;;
43933;SDS011;59081;42.706;23.306;2023-02-28T10:21:03;30.25;;;11.82;;
43933;SDS011;59081;42.706;23.306;2023-02-28T10:23:31;29.70;;;12.55;;
43933;SDS011;59081;42.706;23.306;2023-02-28T10:26:03;26.52;;;11.65;;
43933;SDS011;59081;42.706;23.306;2023-02-28T10:28:36;28.75;;;13.88;;
43933;SDS011;59081;42.706;23.306;2023-02-28T10:31:01;29.40;;;13.05;;
43933;SDS011;59081;42.706;23.306;2023-02-28T10:33:29;29.85;;;13.63;;
43933;SDS011;59081;42.706;23.306;2023-02-28T10:35:56;24.05;;;10.00;;
43933;SDS011;59081;42.706;23.306;2023-02-28T10:38:25;20.48;;;11.50;;
43933;SDS011;59081;42.706;23.306;2023-02-28T10:41:11;27.27;;;11.43;;
43933;SDS011;59081;42.706;23.306;2023-02-28T10:43:38;29.63;;;12.68;;
43933;SDS011;59081;42.706;23.306;2023-02-28T10:51:03;31.95;;;12.73;;
43933;SDS011;59081;42.706;23.306;2023-02-28T10:53:34;33.55;;;10.82;;
43933;SDS011;59081;42.706;23.306;2023-02-28T11:01:22;31.20;;;9.40;;
43933;SDS011;59081;42.706;23.306;2023-02-28T11:03:48;26.37;;;11.30;;
43933;SDS011;59081;42.706;23.306;2023-02-28T11:06:16;25.42;;;9.73;;
43933;SDS011;59081;42.706;23.306;2023-02-28T11:09:01;30.63;;;9.32;;
43933;SDS011;59081;42.706;23.306;2023-02-28T11:11:30;29.33;;;11.48;;
43933;SDS011;59081;42.706;23.306;2023-02-28T11:16:47;25.92;;;10.90;;
43933;SDS011;59081;42.706;23.306;2023-02-28T11:19:22;22.55;;;10.35;;
43933;SDS011;59081;42.706;23.306;2023-02-28T11:21:53;30.95;;;11.15;;
43933;SDS011;59081;42.706;23.306;2023-02-28T11:26:56;12.75;;;6.05;;
43933;SDS011;59081;42.706;23.306;2023-02-28T11:29:26;30.63;;;11.80;;
43933;SDS011;59081;42.706;23.306;2023-02-28T11:34:34;23.60;;;8.10;;
43933;SDS011;59081;42.706;23.306;2023-02-28T11:37:00;21.38;;;8.57;;
43933;SDS011;59081;42.706;23.306;2023-02-28T11:39:30;17.25;;;8.70;;
43933;SDS011;59081;42.706;23.306;2023-02-28T11:47:23;21.15;;;8.82;;
43933;SDS011;59081;42.706;23.306;2023-02-28T11:58:14;19.70;;;9.40;;
43933;SDS011;59081;42.706;23.306;2023-02-28T12:09:46;18.98;;;10.38;;
43933;SDS011;59081;42.706;23.306;2023-02-28T12:23:21;24.33;;;9.57;;
43933;SDS011;59081;42.706;23.306;2023-02-28T12:26:10;20.50;;;9.02;;
43933;SDS011;59081;42.706;23.306;2023-02-28T12:28:52;21.27;;;8.65;;
43933;SDS011;59081;42.706;23.306;2023-02-28T12:31:24;19.17;;;8.77;;
43933;SDS011;59081;42.706;23.306;2023-02-28T12:33:56;24.13;;;8.47;;
43933;SDS011;59081;42.706;23.306;2023-02-28T12:36:28;24.05;;;11.60;;
43933;SDS011;59081;42.706;23.306;2023-02-28T12:39:01;20.42;;;9.43;;
43933;SDS011;59081;42.706;23.306;2023-02-28T12:41:40;24.38;;;10.32;;
43933;SDS011;59081;42.706;23.306;2023-02-28T12:44:14;33.28;;;11.75;;
43933;SDS011;59081;42.706;23.306;2023-02-28T12:46:46;19.00;;;8.85;;
43933;SDS011;59081;42.706;23.306;2023-02-28T12:49:19;20.60;;;9.85;;
43933;SDS011;59081;42.706;23.306;2023-02-28T12:51:50;26.67;;;10.13;;
43933;SDS011;59081;42.706;23.306;2023-02-28T12:59:51;24.65;;;8.93;;
43933;SDS011;59081;42.706;23.306;2023-02-28T13:08:31;20.92;;;5.85;;
43933;SDS011;59081;42.706;23.306;2023-02-28T13:14:04;22.27;;;10.75;;
43933;SDS011;59081;42.706;23.306;2023-02-28T13:19:22;18.75;;;8.93;;
43933;SDS011;59081;42.706;23.306;2023-02-28T13:21:51;22.50;;;9.23;;
43933;SDS011;59081;42.706;23.306;2023-02-28T13:29:36;16.17;;;6.00;;
43933;SDS011;59081;42.706;23.306;2023-02-28T13:34:39;29.45;;;11.43;;
43933;SDS011;59081;42.706;23.306;2023-02-28T13:42:53;30.42;;;9.27;;
43933;SDS011;59081;42.706;23.306;2023-02-28T13:47:28;22.38;;;10.40;;
43933;SDS011;59081;42.706;23.306;2023-02-28T13:58:53;25.08;;;10.00;;
43933;SDS011;59081;42.706;23.306;2023-02-28T14:04:17;17.65;;;7.05;;
43933;SDS011;59081;42.706;23.306;2023-02-28T14:07:06;18.75;;;7.63;;
43933;SDS011;59081;42.706;23.306;2023-02-28T14:09:38;14.88;;;6.20;;
43933;SDS011;59081;42.706;23.306;2023-02-28T14:20:47;20.08;;;9.07;;
43933;SDS011;59081;42.706;23.306;2023-02-28T14:26:38;21.77;;;8.13;;
43933;SDS011;59081;42.706;23.306;2023-02-28T14:32:10;18.40;;;7.90;;
43933;SDS011;59081;42.706;23.306;2023-02-28T14:34:54;19.73;;;8.13;;
43933;SDS011;59081;42.706;23.306;2023-02-28T14:37:33;21.13;;;6.97;;
43933;SDS011;59081;42.706;23.306;2023-02-28T14:40:04;20.63;;;9.02;;
43933;SDS011;59081;42.706;23.306;2023-02-28T14:42:57;22.10;;;11.95;;
43933;SDS011;59081;42.706;23.306;2023-02-28T14:45:24;24.50;;;9.52;;
43933;SDS011;59081;42.706;23.306;2023-02-28T14:47:55;19.93;;;7.20;;
43933;SDS011;59081;42.706;23.306;2023-02-28T14:50:24;28.08;;;9.77;;
43933;SDS011;59081;42.706;23.306;2023-02-28T14:52:55;20.75;;;9.32;;
43933;SDS011;59081;42.706;23.306;2023-02-28T14:55:30;13.32;;;5.45;;
43933;SDS011;59081;42.706;23.306;2023-02-28T14:57:58;11.15;;;5.13;;
43933;SDS011;59081;42.706;23.306;2023-02-28T15:00:32;18.40;;;9.77;;
43933;SDS011;59081;42.706;23.306;2023-02-28T15:03:00;18.77;;;8.25;;
43933;SDS011;59081;42.706;23.306;2023-02-28T15:05:42;17.27;;;9.30;;
43933;SDS011;59081;42.706;23.306;2023-02-28T15:08:17;20.42;;;7.72;;
43933;SDS011;59081;42.706;23.306;2023-02-28T15:10:50;17.88;;;8.90;;
43933;SDS011;59081;42.706;23.306;2023-02-28T15:13:45;28.30;;;11.40;;
43933;SDS011;59081;42.706;23.306;2023-02-28T15:16:18;17.35;;;8.18;;
43933;SDS011;59081;42.706;23.306;2023-02-28T15:18:57;24.48;;;9.05;;
43933;SDS011;59081;42.706;23.306;2023-02-28T15:21:31;19.45;;;9.43;;
43933;SDS011;59081;42.706;23.306;2023-02-28T15:24:02;18.95;;;9.73;;
43933;SDS011;59081;42.706;23.306;2023-02-28T15:26:32;17.17;;;9.88;;
43933;SDS011;59081;42.706;23.306;2023-02-28T15:29:07;17.30;;;8.93;;
43933;SDS011;59081;42.706;23.306;2023-02-28T15:31:48;15.85;;;9.05;;
43933;SDS011;59081;42.706;23.306;2023-02-28T15:34:20;15.50;;;8.93;;
43933;SDS011;59081;42.706;23.306;2023-02-28T15:36:47;22.25;;;9.60;;
43933;SDS011;59081;42.706;23.306;2023-02-28T15:39:20;16.90;;;9.43;;
43933;SDS011;59081;42.706;23.306;2023-02-28T15:41:48;21.88;;;11.52;;
43933;SDS011;59081;42.706;23.306;2023-02-28T15:44:27;28.35;;;10.07;;
43933;SDS011;59081;42.706;23.306;2023-02-28T15:49:23;21.02;;;10.25;;
43933;SDS011;59081;42.706;23.306;2023-02-28T15:51:50;19.13;;;9.65;;
43933;SDS011;59081;42.706;23.306;2023-02-28T15:54:39;20.98;;;10.52;;
43933;SDS011;59081;42.706;23.306;2023-02-28T15:57:05;17.20;;;8.75;;
43933;SDS011;59081;42.706;23.306;2023-02-28T15:59:35;20.63;;;8.45;;
43933;SDS011;59081;42.706;23.306;2023-02-28T16:02:18;22.55;;;9.15;;
43933;SDS011;59081;42.706;23.306;2023-02-28T16:05:01;16.67;;;10.43;;
43933;SDS011;59081;42.706;23.306;2023-02-28T16:07:33;20.20;;;9.90;;
43933;SDS011;59081;42.706;23.306;2023-02-28T16:10:04;14.27;;;9.00;;
43933;SDS011;59081;42.706;23.306;2023-02-28T16:12:31;15.98;;;9.27;;
43933;SDS011;59081;42.706;23.306;2023-02-28T16:14:59;17.40;;;9.38;;
43933;SDS011;59081;42.706;23.306;2023-02-28T16:17:31;21.33;;;10.43;;
43933;SDS011;59081;42.706;23.306;2023-02-28T16:19:58;12.82;;;7.85;;
43933;SDS011;59081;42.706;23.306;2023-02-28T16:22:24;13.52;;;7.75;;
43933;SDS011;59081;42.706;23.306;2023-02-28T16:24:50;15.15;;;8.68;;
43933;SDS011;59081;42.706;23.306;2023-02-28T16:27:20;15.07;;;8.13;;
43933;SDS011;59081;42.706;23.306;2023-02-28T16:29:51;10.60;;;6.22;;
43933;SDS011;59081;42.706;23.306;2023-02-28T16:32:18;15.40;;;7.40;;
43933;SDS011;59081;42.706;23.306;2023-02-28T16:34:44;16.02;;;9.18;;
43933;SDS011;59081;42.706;23.306;2023-02-28T16:37:11;19.88;;;7.97;;
43933;SDS011;59081;42.706;23.306;2023-02-28T16:39:38;13.55;;;7.20;;
43933;SDS011;59081;42.706;23.306;2023-02-28T16:42:04;18.73;;;7.80;;
43933;SDS011;59081;42.706;23.306;2023-02-28T16:44:31;18.83;;;8.05;;
43933;SDS011;59081;42.706;23.306;2023-02-28T16:47:02;19.17;;;7.18;;
43933;SDS011;59081;42.706;23.306;2023-02-28T16:49:29;17.10;;;9.05;;
43933;SDS011;59081;42.706;23.306;2023-02-28T16:51:57;15.82;;;7.18;;
43933;SDS011;59081;42.706;23.306;2023-02-28T16:54:25;13.10;;;5.88;;
43933;SDS011;59081;42.706;23.306;2023-02-28T16:56:51;13.07;;;6.13;;
43933;SDS011;59081;42.706;23.306;2023-02-28T16:59:22;9.07;;;4.60;;
43933;SDS011;59081;42.706;23.306;2023-02-28T17:01:50;11.60;;;5.78;;
43933;SDS011;59081;42.706;23.306;2023-02-28T17:04:16;8.65;;;5.70;;
43933;SDS011;59081;42.706;23.306;2023-02-28T17:06:42;8.90;;;4.97;;
43933;SDS011;59081;42.706;23.306;2023-02-28T17:09:15;11.60;;;6.32;;
43933;SDS011;59081;42.706;23.306;2023-02-28T17:11:43;9.10;;;4.57;;
43933;SDS011;59081;42.706;23.306;2023-02-28T17:14:09;10.32;;;7.03;;
43933;SDS011;59081;42.706;23.306;2023-02-28T17:16:35;12.95;;;5.75;;
43933;SDS011;59081;42.706;23.306;2023-02-28T17:19:05;8.38;;;4.82;;
43933;SDS011;59081;42.706;23.306;2023-02-28T17:21:32;8.60;;;4.65;;